Time;durP1;ratioP1;P1;durP2;ratioP2;P2;SDS_P1;SDS_P2;PMS_P1;PMS_P2;Temp;Humidity;BMP_temperature;BMP_pressure;BME280_temperature;BME280_humidity;BME280_pressure;Samples;Min_cycle;Max_cycle;Signal;HPM_P1;HPM_P2
2021/12/10 00:00:32;;;;;;;10.85;5.15;;;-1.40;99.90;;;;;;5113439;28;20027;-69
2021/12/10 00:03:00;;;;;;;10.52;5.38;;;-1.40;99.90;;;;;;5113200;28;20070;-70
2021/12/10 00:05:34;;;;;;;9.10;4.93;;;-1.40;99.90;;;;;;5113299;28;20430;-70
2021/12/10 00:08:00;;;;;;;10.10;5.00;;;-1.40;99.90;;;;;;5113181;28;20028;-71
2021/12/10 00:10:34;;;;;;;11.77;5.78;;;-1.40;99.90;;;;;;5113241;28;20028;-72
2021/12/10 00:13:01;;;;;;;9.80;5.18;;;-1.40;99.90;;;;;;5113066;28;20020;-71
2021/12/10 00:15:29;;;;;;;8.45;5.07;;;-1.40;99.90;;;;;;5113131;28;20020;-71
2021/12/10 00:17:57;;;;;;;6.20;4.28;;;-1.50;99.90;;;;;;5112976;27;20471;-71
2021/12/10 00:20:26;;;;;;;7.88;4.97;;;-1.50;99.90;;;;;;5113046;28;20114;-71
2021/12/10 00:23:04;;;;;;;8.25;4.47;;;-1.50;99.90;;;;;;5113192;28;20035;-71
2021/12/10 00:25:38;;;;;;;9.02;4.82;;;-1.50;99.90;;;;;;5112123;27;20490;-71
2021/12/10 00:28:15;;;;;;;9.88;5.03;;;-1.50;99.90;;;;;;5112885;28;20386;-71
2021/12/10 00:31:03;;;;;;;7.88;4.43;;;-1.50;99.90;;;;;;5113226;28;20035;-70
2021/12/10 00:33:35;;;;;;;7.63;4.40;;;-1.50;99.90;;;;;;5111538;28;20040;-70
2021/12/10 00:36:01;;;;;;;8.20;4.93;;;-1.60;99.90;;;;;;5112592;28;20027;-71
2021/12/10 00:38:27;;;;;;;6.45;4.95;;;-1.60;99.90;;;;;;5112733;28;20483;-70
2021/12/10 00:40:54;;;;;;;6.55;4.93;;;-1.50;99.90;;;;;;5112900;28;20028;-70
2021/12/10 00:43:20;;;;;;;7.95;4.25;;;-1.60;99.90;;;;;;5113098;28;20028;-69
2021/12/10 00:45:46;;;;;;;13.52;4.93;;;-1.60;99.90;;;;;;5112665;28;20476;-69
2021/12/10 00:48:12;;;;;;;11.35;5.78;;;-1.60;99.90;;;;;;5112631;28;20024;-70
2021/12/10 00:50:47;;;;;;;6.75;4.35;;;-1.60;99.90;;;;;;5112723;28;20020;-70
2021/12/10 00:53:15;;;;;;;6.45;3.97;;;-1.60;99.90;;;;;;5112718;28;20035;-70
2021/12/10 00:55:42;;;;;;;9.25;4.43;;;-1.60;99.90;;;;;;5112605;28;20106;-70
2021/12/10 00:58:07;;;;;;;9.32;4.53;;;-1.60;99.90;;;;;;5112623;28;20040;-70
2021/12/10 01:00:39;;;;;;;5.63;4.03;;;-1.60;99.90;;;;;;5112197;28;20449;-70
2021/12/10 01:03:08;;;;;;;6.05;3.92;;;-1.60;99.90;;;;;;5112372;28;20038;-70
2021/12/10 01:05:36;;;;;;;6.43;4.05;;;-1.70;99.90;;;;;;5112585;28;20027;-71
2021/12/10 01:08:02;;;;;;;6.82;3.53;;;-1.70;99.90;;;;;;5112231;28;20492;-70
2021/12/10 01:10:45;;;;;;;8.52;4.07;;;-1.60;99.90;;;;;;5112396;28;20114;-70
2021/12/10 01:13:16;;;;;;;6.78;4.13;;;-1.60;99.90;;;;;;5112433;28;20042;-70
2021/12/10 01:23:44;;;;;;;7.72;4.32;;;-1.70;99.90;;;;;;5112654;28;20379;-70
2021/12/10 01:27:08;;;;;;;5.70;3.85;;;-1.80;99.90;;;;;;5112478;28;20016;-70
2021/12/10 01:29:37;;;;;;;6.63;4.25;;;-1.70;99.90;;;;;;5112365;28;20020;-70
2021/12/10 01:32:06;;;;;;;5.70;4.22;;;-1.70;99.90;;;;;;5111973;28;20020;-70
2021/12/10 01:34:32;;;;;;;7.00;3.88;;;-1.70;99.90;;;;;;5112103;28;20043;-70
2021/12/10 01:36:59;;;;;;;6.43;4.43;;;-1.70;99.90;;;;;;5114273;28;20464;-68
2021/12/10 01:39:31;;;;;;;8.18;4.18;;;-1.70;99.90;;;;;;5116149;28;20032;-68
2021/12/10 01:42:12;;;;;;;6.05;3.70;;;-1.80;99.90;;;;;;5116055;28;20016;-68
2021/12/10 01:44:42;;;;;;;5.35;3.60;;;-1.80;99.90;;;;;;5116106;28;20028;-68
2021/12/10 01:47:09;;;;;;;7.20;4.93;;;-1.70;99.90;;;;;;5116020;28;20068;-68
2021/12/10 01:49:35;;;;;;;10.15;4.28;;;-1.70;99.90;;;;;;5116001;28;20032;-68
2021/12/10 01:52:01;;;;;;;6.18;3.92;;;-1.70;99.90;;;;;;5115835;28;20023;-68
2021/12/10 01:54:35;;;;;;;5.05;3.67;;;-1.70;99.90;;;;;;5115861;28;20054;-68
2021/12/10 01:57:02;;;;;;;8.60;4.25;;;-1.80;99.90;;;;;;5116020;28;20383;-68
2021/12/10 01:59:31;;;;;;;7.57;3.97;;;-1.80;99.90;;;;;;5116095;28;20096;-68
2021/12/10 02:02:01;;;;;;;6.95;4.40;;;-1.90;99.90;;;;;;5115370;28;20048;-68
2021/12/10 02:04:31;;;;;;;11.98;4.47;;;-1.80;99.90;;;;;;5115881;28;20032;-68
2021/12/10 02:07:00;;;;;;;6.97;3.70;;;-1.90;99.90;;;;;;5115880;28;20068;-68
2021/12/10 02:09:26;;;;;;;5.43;3.60;;;-1.90;99.90;;;;;;5115984;28;20023;-68
2021/12/10 02:11:52;;;;;;;5.47;3.75;;;-1.90;99.90;;;;;;5115616;28;20115;-68
2021/12/10 02:14:18;;;;;;;6.53;3.50;;;-2.00;99.90;;;;;;5115568;28;20035;-68
2021/12/10 02:16:44;;;;;;;8.50;3.22;;;-1.90;99.90;;;;;;5115795;28;20077;-68
2021/12/10 02:19:12;;;;;;;4.30;3.28;;;-2.00;99.90;;;;;;5115491;28;20039;-68
2021/12/10 02:21:40;;;;;;;6.20;3.55;;;-2.00;99.90;;;;;;5115653;28;20382;-69
2021/12/10 02:24:08;;;;;;;5.35;3.28;;;-2.10;99.90;;;;;;5115547;28;20443;-69
2021/12/10 02:55:38;;;;;;;4.90;3.55;;;-2.20;99.90;;;;;;5114786;28;20035;-68
2021/12/10 02:58:10;;;;;;;5.25;3.35;;;-2.20;99.90;;;;;;5114723;28;20028;-69
2021/12/10 03:00:52;;;;;;;6.88;3.92;;;-2.20;99.90;;;;;;5114433;28;20387;-69
2021/12/10 03:03:19;;;;;;;6.85;3.25;;;-2.20;99.90;;;;;;5114607;28;20023;-69
2021/12/10 03:05:45;;;;;;;6.57;3.38;;;-2.20;99.90;;;;;;5114374;28;20494;-69
2021/12/10 03:08:12;;;;;;;6.10;3.28;;;-2.20;99.90;;;;;;5114422;28;20479;-68
2021/12/10 03:10:38;;;;;;;6.40;3.85;;;-2.20;99.90;;;;;;5114296;28;20502;-68
2021/12/10 03:13:06;;;;;;;5.07;2.95;;;-2.30;99.90;;;;;;5114541;28;20084;-68
2021/12/10 03:15:32;;;;;;;6.38;3.75;;;-2.30;99.90;;;;;;5114235;28;20081;-69
2021/12/10 03:18:00;;;;;;;5.25;3.70;;;-2.30;99.90;;;;;;5114498;28;20107;-69
2021/12/10 03:20:29;;;;;;;5.38;3.08;;;-2.30;99.90;;;;;;5114344;28;20047;-70
2021/12/10 03:22:59;;;;;;;4.63;3.17;;;-2.30;99.90;;;;;;5114012;28;20019;-69
2021/12/10 03:25:25;;;;;;;4.60;3.42;;;-2.30;99.90;;;;;;5114106;28;20035;-69
2021/12/10 03:27:51;;;;;;;5.28;3.63;;;-2.30;99.90;;;;;;5113812;28;20046;-69
2021/12/10 03:30:20;;;;;;;7.50;3.78;;;-2.30;99.90;;;;;;5113976;28;20115;-69
2021/12/10 03:32:47;;;;;;;6.75;4.32;;;-2.30;99.90;;;;;;5113877;28;20379;-69
2021/12/10 03:35:22;;;;;;;8.50;3.83;;;-2.30;99.90;;;;;;5114367;28;20102;-70
2021/12/10 03:37:48;;;;;;;5.45;4.03;;;-2.30;99.90;;;;;;5113792;27;20023;-69
2021/12/10 03:40:16;;;;;;;5.18;4.22;;;-2.40;99.90;;;;;;5113958;28;20059;-69
2021/12/10 03:42:43;;;;;;;6.47;3.95;;;-2.30;99.90;;;;;;5113926;28;20447;-69
2021/12/10 03:45:12;;;;;;;6.20;4.00;;;-2.30;99.90;;;;;;5113972;28;20012;-69
2021/12/10 03:47:38;;;;;;;6.18;3.85;;;-2.30;99.90;;;;;;5113706;28;20111;-68
2021/12/10 03:50:06;;;;;;;7.93;4.32;;;-2.40;99.90;;;;;;5114068;28;20103;-69
2021/12/10 03:52:32;;;;;;;6.90;4.55;;;-2.40;99.90;;;;;;5113675;28;20077;-69
2021/12/10 03:54:59;;;;;;;7.20;4.22;;;-2.40;99.90;;;;;;5113699;28;20028;-69
2021/12/10 03:57:25;;;;;;;9.93;4.15;;;-2.40;99.90;;;;;;5113428;27;20102;-69
2021/12/10 03:59:51;;;;;;;6.90;4.35;;;-2.40;99.90;;;;;;5113240;28;20115;-69
2021/12/10 04:02:17;;;;;;;6.40;4.45;;;-2.50;99.90;;;;;;5113650;28;20028;-69
2021/12/10 04:04:46;;;;;;;10.05;4.78;;;-2.50;99.90;;;;;;5113247;28;20527;-69
2021/12/10 04:07:19;;;;;;;8.70;4.65;;;-2.50;99.90;;;;;;5113366;28;20421;-69
2021/12/10 04:09:46;;;;;;;6.57;4.50;;;-2.50;99.90;;;;;;5113483;28;20412;-69
2021/12/10 04:12:12;;;;;;;8.75;4.95;;;-2.50;99.90;;;;;;5111896;28;20145;-69
2021/12/10 04:14:41;;;;;;;6.57;4.68;;;-2.60;99.90;;;;;;5113033;28;20031;-69
2021/12/10 04:17:08;;;;;;;7.13;5.15;;;-2.60;99.90;;;;;;5113146;28;20035;-69
2021/12/10 04:19:37;;;;;;;7.03;5.03;;;-2.60;99.90;;;;;;5113068;28;20496;-69
2021/12/10 04:22:06;;;;;;;7.97;5.07;;;-2.60;99.90;;;;;;5112968;28;20019;-70
2021/12/10 04:24:36;;;;;;;7.10;5.15;;;-2.60;99.90;;;;;;5112825;28;20038;-69
2021/12/10 04:27:04;;;;;;;10.05;5.68;;;-2.60;99.90;;;;;;5112961;28;20020;-69
2021/12/10 04:29:30;;;;;;;9.20;4.88;;;-2.60;99.90;;;;;;5113264;28;20023;-69
2021/12/10 04:31:57;;;;;;;8.30;5.40;;;-2.60;99.90;;;;;;5112882;28;20028;-69
2021/12/10 04:34:24;;;;;;;10.68;5.55;;;-2.50;99.90;;;;;;5113041;28;20039;-69
2021/12/10 04:36:53;;;;;;;8.45;5.38;;;-2.50;99.90;;;;;;5112568;28;20024;-69
2021/12/10 04:39:19;;;;;;;12.55;6.30;;;-2.50;99.90;;;;;;5112766;28;20086;-68
2021/12/10 04:41:45;;;;;;;10.75;5.90;;;-2.50;99.90;;;;;;5112642;28;20030;-69
2021/12/10 04:44:11;;;;;;;10.93;6.13;;;-2.50;99.90;;;;;;5112650;28;20028;-70
2021/12/10 04:46:36;;;;;;;11.15;6.45;;;-2.50;99.90;;;;;;5112600;28;20051;-69
2021/12/10 04:49:10;;;;;;;13.40;6.88;;;-2.50;99.90;;;;;;5112699;28;20030;-69
2021/12/10 04:51:52;;;;;;;9.38;6.25;;;-2.50;99.90;;;;;;5112446;28;20545;-69
2021/12/10 04:54:20;;;;;;;11.35;5.85;;;-2.50;99.90;;;;;;5112585;27;20470;-69
2021/12/10 04:56:48;;;;;;;10.95;6.47;;;-2.50;99.90;;;;;;5112392;28;20103;-69
2021/12/10 04:59:16;;;;;;;13.80;7.25;;;-2.50;99.90;;;;;;5112518;28;20051;-69
2021/12/10 05:01:43;;;;;;;14.65;6.78;;;-2.50;99.90;;;;;;5112249;28;20043;-69
2021/12/10 05:04:11;;;;;;;10.77;6.03;;;-2.40;99.90;;;;;;5112604;28;20015;-70
2021/12/10 05:06:37;;;;;;;11.23;6.10;;;-2.50;99.90;;;;;;5112400;28;20054;-70
2021/12/10 05:09:07;;;;;;;14.85;7.45;;;-2.40;99.90;;;;;;5112560;28;20028;-70
2021/12/10 05:11:33;;;;;;;13.30;7.10;;;-2.50;99.90;;;;;;5116471;28;20019;-70
2021/12/10 05:13:59;;;;;;;12.93;7.60;;;-2.40;99.90;;;;;;5119182;27;20028;-70
2021/12/10 05:16:26;;;;;;;13.95;7.38;;;-2.40;99.90;;;;;;5119258;27;20379;-70
2021/12/10 05:18:58;;;;;;;14.68;8.50;;;-2.40;99.90;;;;;;5118996;27;20024;-70
2021/12/10 05:21:29;;;;;;;12.85;7.68;;;-2.40;99.90;;;;;;5119008;28;20019;-70
2021/12/10 05:23:55;;;;;;;15.02;7.32;;;-2.40;99.90;;;;;;5118966;27;20027;-70
2021/12/10 05:26:21;;;;;;;13.20;7.75;;;-2.40;99.90;;;;;;5119071;27;20020;-69
2021/12/10 05:28:47;;;;;;;13.32;7.55;;;-2.30;99.90;;;;;;5118870;28;20411;-69
2021/12/10 05:31:13;;;;;;;12.48;7.78;;;-2.30;99.90;;;;;;5119083;27;20383;-67
2021/12/10 05:33:39;;;;;;;13.13;7.85;;;-2.30;99.90;;;;;;5118606;27;20084;-67
2021/12/10 05:36:05;;;;;;;13.82;7.88;;;-2.30;99.90;;;;;;5118634;27;20034;-69
2021/12/10 05:38:31;;;;;;;17.38;8.57;;;-2.30;99.90;;;;;;5119110;27;20023;-68
2021/12/10 05:40:59;;;;;;;13.65;7.75;;;-2.30;99.90;;;;;;5101607;27;20028;-68
2021/12/10 05:43:25;;;;;;;11.65;6.72;;;-1.80;99.90;;;;;;5108295;28;20047;-71
2021/12/10 05:45:53;;;;;;;13.18;7.28;;;-1.80;99.90;;;;;;5118854;27;20107;-66
2021/12/10 05:48:20;;;;;;;13.18;8.13;;;-1.90;99.90;;;;;;5108172;27;20071;-70
2021/12/10 05:50:47;;;;;;;13.18;7.03;;;-2.10;99.90;;;;;;5103327;28;20020;-70
2021/12/10 05:53:13;;;;;;;12.75;7.40;;;-2.10;99.90;;;;;;5106961;28;20035;-73
2021/12/10 05:55:40;;;;;;;13.18;7.13;;;-2.20;99.90;;;;;;5109431;27;20027;-72
2021/12/10 05:58:07;;;;;;;13.43;7.53;;;-2.20;99.90;;;;;;5110985;27;20024;-71
2021/12/10 06:00:40;;;;;;;16.83;7.45;;;-2.30;99.90;;;;;;5101293;28;20040;-71
2021/12/10 06:03:07;;;;;;;12.43;6.55;;;-2.30;99.90;;;;;;5105696;28;20114;-71
2021/12/10 06:05:34;;;;;;;12.45;6.55;;;-2.30;99.90;;;;;;5106373;28;20096;-71
2021/12/10 06:08:00;;;;;;;10.68;6.63;;;-2.30;99.90;;;;;;5109056;28;20011;-70
2021/12/10 06:10:26;;;;;;;10.88;5.95;;;-2.30;99.90;;;;;;5108631;27;20024;-70
2021/12/10 06:12:52;;;;;;;10.95;6.30;;;-2.20;99.90;;;;;;5102959;28;20028;-70
2021/12/10 06:15:21;;;;;;;13.05;6.72;;;-2.20;99.90;;;;;;5107720;27;20024;-70
2021/12/10 06:17:48;;;;;;;13.77;6.93;;;-2.20;99.90;;;;;;5115853;28;20087;-70
2021/12/10 06:20:17;;;;;;;12.23;7.13;;;-2.20;99.90;;;;;;5108566;27;20471;-70
2021/12/10 06:22:44;;;;;;;12.65;7.07;;;-2.20;99.90;;;;;;5107116;28;20391;-69
2021/12/10 06:25:10;;;;;;;12.05;6.78;;;-2.20;99.90;;;;;;5102705;28;20024;-69
2021/12/10 06:27:38;;;;;;;10.43;6.57;;;-2.20;99.90;;;;;;5099218;28;20111;-74
2021/12/10 06:30:05;;;;;;;10.95;6.25;;;-2.20;99.90;;;;;;5094810;28;20065;-72
2021/12/10 06:32:31;;;;;;;13.38;6.55;;;-2.20;99.90;;;;;;5094748;28;20031;-70
2021/12/10 06:34:57;;;;;;;13.25;7.07;;;-2.10;99.90;;;;;;5094679;28;20093;-70
2021/12/10 06:37:23;;;;;;;9.70;5.53;;;-1.80;99.90;;;;;;5094975;28;20107;-70
2021/12/10 06:39:48;;;;;;;9.23;5.70;;;-1.90;99.90;;;;;;5094686;28;20101;-69
2021/12/10 06:42:14;;;;;;;7.95;5.32;;;-2.00;99.90;;;;;;5093300;28;20020;-69
2021/12/10 06:44:40;;;;;;;7.68;5.30;;;-2.10;99.90;;;;;;5094748;28;20069;-70
2021/12/10 06:47:08;;;;;;;12.68;5.72;;;-2.10;99.90;;;;;;5094539;28;20486;-69
2021/12/10 06:49:34;;;;;;;11.13;5.50;;;-2.10;99.90;;;;;;5094383;28;20411;-69
2021/12/10 06:52:01;;;;;;;10.65;5.72;;;-2.20;99.90;;;;;;5093978;28;20020;-70
2021/12/10 06:54:28;;;;;;;10.05;5.75;;;-2.20;99.90;;;;;;5094294;28;20055;-70
2021/12/10 06:56:56;;;;;;;8.90;5.47;;;-2.20;99.90;;;;;;5094267;28;20361;-66
2021/12/10 06:59:24;;;;;;;14.32;6.40;;;-2.10;99.90;;;;;;5094324;28;20028;-66
2021/12/10 07:01:50;;;;;;;8.70;5.65;;;-2.10;99.90;;;;;;5092773;28;20185;-66
2021/12/10 07:04:16;;;;;;;8.95;5.85;;;-2.10;99.90;;;;;;5094102;28;20479;-65
2021/12/10 07:06:45;;;;;;;8.60;5.88;;;-2.10;99.90;;;;;;5093861;28;20060;-67
2021/12/10 07:09:15;;;;;;;9.73;5.13;;;-2.10;99.90;;;;;;5095797;28;20103;-66
2021/12/10 07:11:41;;;;;;;8.38;3.78;;;-2.00;99.90;;;;;;5111324;28;20028;-66
2021/12/10 07:14:07;;;;;;;11.95;4.88;;;-1.40;99.90;;;;;;5114252;28;20487;-66
2021/12/10 07:16:33;;;;;;;7.53;5.10;;;-0.70;99.90;;;;;;5114580;28;20110;-66
2021/12/10 07:19:01;;;;;;;8.05;4.53;;;-0.60;99.90;;;;;;5114107;28;20015;-65
2021/12/10 07:21:29;;;;;;;8.90;5.13;;;-0.90;99.90;;;;;;5114264;28;20020;-65
2021/12/10 07:23:55;;;;;;;7.38;4.95;;;-1.20;99.90;;;;;;5114004;28;20102;-65
2021/12/10 07:26:21;;;;;;;9.77;5.38;;;-1.40;99.90;;;;;;5114098;28;20110;-65
2021/12/10 07:28:47;;;;;;;10.82;5.95;;;-1.50;99.90;;;;;;5113928;28;20111;-66
2021/12/10 07:31:13;;;;;;;9.20;5.47;;;-1.60;99.90;;;;;;5114049;28;20027;-65
2021/12/10 07:33:41;;;;;;;7.40;4.88;;;-1.70;99.90;;;;;;5113446;28;20031;-64
2021/12/10 07:36:08;;;;;;;8.55;5.20;;;-1.50;99.90;;;;;;5114173;28;20101;-67
2021/12/10 07:38:34;;;;;;;11.45;4.95;;;-1.40;99.90;;;;;;5113732;28;20532;-68
2021/12/10 07:41:01;;;;;;;15.27;5.05;;;-1.50;99.90;;;;;;5107864;28;20361;-65
2021/12/10 07:43:26;;;;;;;8.77;4.60;;;-1.60;99.90;;;;;;5100271;28;20028;-64
2021/12/10 07:45:52;;;;;;;7.25;4.28;;;-1.80;99.90;;;;;;5097376;28;20042;-64
2021/12/10 07:48:20;;;;;;;7.57;4.28;;;-1.90;99.90;;;;;;5106830;28;20114;-63
2021/12/10 07:50:56;;;;;;;6.18;4.55;;;-1.90;99.90;;;;;;5109792;28;20024;-64
2021/12/10 07:53:22;;;;;;;8.82;4.88;;;-2.00;99.90;;;;;;5113290;28;20027;-64
2021/12/10 07:55:49;;;;;;;8.65;4.60;;;-2.00;99.90;;;;;;5111472;28;20031;-64
2021/12/10 07:58:16;;;;;;;8.18;4.20;;;-2.10;99.90;;;;;;5101722;28;20046;-64
2021/12/10 08:00:44;;;;;;;7.95;4.20;;;-2.10;99.90;;;;;;5104304;28;20129;-64
2021/12/10 08:03:10;;;;;;;6.97;4.32;;;-2.10;99.90;;;;;;5112226;28;20024;-63
2021/12/10 08:05:38;;;;;;;6.80;4.60;;;-2.10;99.90;;;;;;5113624;28;20126;-63
2021/12/10 08:08:06;;;;;;;7.43;4.65;;;-2.10;99.90;;;;;;5113077;28;20015;-63
2021/12/10 08:10:33;;;;;;;6.38;4.80;;;-2.10;99.90;;;;;;5113196;28;20032;-63
2021/12/10 08:13:00;;;;;;;9.40;4.28;;;-2.00;99.90;;;;;;5109886;28;20074;-63
2021/12/10 08:15:25;;;;;;;6.80;4.32;;;-2.10;99.90;;;;;;5102558;28;20022;-63
2021/12/10 08:17:52;;;;;;;9.32;4.55;;;-2.10;99.90;;;;;;5105562;28;20023;-64
2021/12/10 08:20:21;;;;;;;6.30;4.45;;;-2.10;99.90;;;;;;5101269;28;20024;-63
2021/12/10 08:22:48;;;;;;;11.45;5.07;;;-2.10;99.90;;;;;;5101242;28;20028;-63
2021/12/10 08:25:14;;;;;;;6.28;4.63;;;-2.10;99.90;;;;;;5102637;28;20069;-64
2021/12/10 08:27:41;;;;;;;6.65;4.07;;;-2.10;99.90;;;;;;5100429;28;20019;-64
2021/12/10 08:30:10;;;;;;;7.97;4.13;;;-2.10;99.90;;;;;;5108701;28;20081;-65
2021/12/10 08:32:39;;;;;;;8.25;5.03;;;-2.10;99.90;;;;;;5106043;28;20015;-70
2021/12/10 08:35:08;;;;;;;7.00;4.82;;;-2.10;99.90;;;;;;5102301;28;20032;-70
2021/12/10 08:37:34;;;;;;;10.65;4.18;;;-1.70;99.90;;;;;;5092592;28;20024;-67
2021/12/10 08:40:00;;;;;;;7.35;4.47;;;-1.20;99.90;;;;;;5092261;28;20031;-69
2021/12/10 08:42:26;;;;;;;8.82;4.45;;;-0.50;99.90;;;;;;5092142;28;20490;-69
2021/12/10 08:44:52;;;;;;;7.00;4.57;;;0.10;99.90;;;;;;5092220;28;20383;-69
2021/12/10 08:47:18;;;;;;;7.22;4.50;;;0.20;99.90;;;;;;5091477;28;20471;-68
2021/12/10 08:49:44;;;;;;;6.05;4.22;;;0.50;99.90;;;;;;5092200;28;20034;-65
2021/12/10 08:52:11;;;;;;;7.93;4.25;;;1.20;99.90;;;;;;5092096;28;20016;-63
2021/12/10 08:54:38;;;;;;;7.45;3.95;;;1.00;99.90;;;;;;5098378;28;20434;-64
2021/12/10 08:57:06;;;;;;;5.82;4.25;;;0.50;99.90;;;;;;5101715;28;20062;-64
2021/12/10 08:59:32;;;;;;;11.40;4.60;;;0.00;99.90;;;;;;5103148;28;20023;-63
2021/12/10 09:02:01;;;;;;;7.43;4.00;;;-0.50;99.90;;;;;;5094247;28;20487;-65
2021/12/10 09:04:30;;;;;;;7.85;4.75;;;-0.80;99.90;;;;;;5094364;28;20077;-65
2021/12/10 09:07:03;;;;;;;10.75;4.95;;;-1.00;99.90;;;;;;5109665;28;20391;-65
2021/12/10 09:09:30;;;;;;;9.35;4.93;;;-1.10;99.90;;;;;;5112427;28;20089;-65
2021/12/10 09:11:59;;;;;;;7.60;4.70;;;-1.30;99.90;;;;;;5112550;28;20030;-65
2021/12/10 09:14:31;;;;;;;7.07;4.65;;;-1.40;99.90;;;;;;5112437;28;20090;-63
2021/12/10 09:17:01;;;;;;;4.68;2.90;;;-1.20;99.90;;;;;;5112459;28;20107;-63
2021/12/10 09:19:28;;;;;;;9.35;4.95;;;-0.80;99.90;;;;;;5112664;28;20111;-63
2021/12/10 09:21:55;;;;;;;6.65;3.88;;;0.70;99.90;;;;;;5111834;28;20379;-63
2021/12/10 09:24:23;;;;;;;7.22;4.45;;;0.10;99.90;;;;;;5112548;28;20121;-63
2021/12/10 09:26:56;;;;;;;7.72;5.20;;;-0.50;99.90;;;;;;5112117;28;20028;-63
2021/12/10 09:29:25;;;;;;;7.28;4.18;;;-0.80;99.90;;;;;;5112221;28;20051;-64
2021/12/10 09:31:53;;;;;;;10.95;5.10;;;-1.00;99.90;;;;;;5110828;28;20031;-63
2021/12/10 09:34:19;;;;;;;7.93;5.00;;;-1.20;99.90;;;;;;5112114;28;20039;-63
2021/12/10 09:36:46;;;;;;;5.90;4.60;;;-1.20;99.90;;;;;;5112385;28;20028;-63
2021/12/10 09:39:15;;;;;;;7.88;4.93;;;-1.30;99.90;;;;;;5111992;28;20428;-63
2021/12/10 09:41:41;;;;;;;5.93;4.43;;;-1.30;99.90;;;;;;5112412;28;20027;-63
2021/12/10 09:44:07;;;;;;;7.15;3.97;;;-1.30;99.90;;;;;;5112156;28;20024;-63
2021/12/10 09:46:35;;;;;;;10.05;4.82;;;-1.30;99.90;;;;;;5112378;28;20024;-64
2021/12/10 09:49:02;;;;;;;6.90;4.35;;;-1.40;99.90;;;;;;5112117;28;20411;-63
2021/12/10 09:51:33;;;;;;;10.20;4.70;;;-1.40;99.90;;;;;;5111972;28;20493;-63
2021/12/10 09:54:05;;;;;;;8.48;4.93;;;-1.40;99.90;;;;;;5111969;28;20511;-64
2021/12/10 09:56:31;;;;;;;8.32;4.95;;;-1.40;99.90;;;;;;5112247;28;20077;-63
2021/12/10 09:58:57;;;;;;;9.05;5.13;;;-1.50;99.90;;;;;;5115683;28;20057;-63
2021/12/10 10:01:31;;;;;;;7.47;4.47;;;-1.50;99.90;;;;;;5115700;28;20104;-65
2021/12/10 10:04:01;;;;;;;8.73;4.80;;;-1.60;99.90;;;;;;5100747;27;20106;-63
2021/12/10 10:06:29;;;;;;;;;;;-1.60;99.90;;;;;;5096822;28;20020;-64
2021/12/10 10:08:55;;;;;;;7.10;4.72;;;-1.60;99.90;;;;;;5095199;28;19904;-62
2021/12/10 10:11:28;;;;;;;7.53;5.28;;;-1.60;99.90;;;;;;5095193;28;20031;-62
2021/12/10 10:13:54;;;;;;;6.78;4.38;;;-1.60;99.90;;;;;;5095159;28;20101;-62
2021/12/10 10:16:21;;;;;;;6.97;4.30;;;-1.70;99.90;;;;;;5101444;28;20031;-62
2021/12/10 10:18:49;;;;;;;8.18;4.80;;;-1.70;99.90;;;;;;5115353;28;20035;-62
2021/12/10 10:21:23;;;;;;;9.40;4.53;;;-1.70;99.90;;;;;;5115437;28;20023;-62
2021/12/10 10:23:49;;;;;;;11.57;5.20;;;-1.70;99.90;;;;;;5115352;28;20043;-62
2021/12/10 10:26:19;;;;;;;9.82;5.25;;;-1.70;99.90;;;;;;5108034;28;20368;-62
2021/12/10 10:28:45;;;;;;;8.40;4.70;;;-1.70;99.90;;;;;;5095162;28;20067;-62
2021/12/10 10:31:17;;;;;;;6.97;4.53;;;-1.60;99.90;;;;;;5093378;28;20028;-62
2021/12/10 10:33:45;;;;;;;8.00;4.68;;;-1.60;99.90;;;;;;5094906;28;20114;-62
2021/12/10 10:36:19;;;;;;;8.05;5.03;;;-1.50;99.90;;;;;;5094688;28;20399;-62
2021/12/10 10:38:48;;;;;;;7.85;4.65;;;-1.50;99.90;;;;;;5094693;28;20070;-62
2021/12/10 10:41:15;;;;;;;7.13;4.53;;;-1.50;99.90;;;;;;5094850;28;20052;-62
2021/12/10 10:43:41;;;;;;;7.05;4.38;;;-1.50;99.90;;;;;;5094729;28;20046;-62
2021/12/10 10:46:08;;;;;;;7.57;5.22;;;-1.40;99.90;;;;;;5094498;28;20020;-62
2021/12/10 10:48:34;;;;;;;6.65;4.05;;;-1.40;99.90;;;;;;5094688;28;20024;-62
2021/12/10 10:51:08;;;;;;;6.97;4.28;;;-1.40;99.90;;;;;;5094231;28;20511;-62
2021/12/10 10:53:45;;;;;;;6.97;3.85;;;-1.40;99.90;;;;;;5094526;28;20373;-62
2021/12/10 10:56:16;;;;;;;7.93;4.53;;;-1.40;99.90;;;;;;5094401;28;20031;-62
2021/12/10 10:58:46;;;;;;;8.27;3.97;;;-1.50;99.90;;;;;;5094587;28;20028;-62
2021/12/10 11:01:22;;;;;;;7.45;4.32;;;-1.60;99.90;;;;;;5094122;28;20059;-62
2021/12/10 11:04:04;;;;;;;6.57;3.90;;;-1.60;99.90;;;;;;5094403;28;20439;-62
2021/12/10 11:06:36;;;;;;;7.88;4.25;;;-1.30;99.90;;;;;;5094475;28;20069;-62
2021/12/10 11:09:14;;;;;;;9.32;4.50;;;-0.80;99.90;;;;;;5094005;28;20027;-62
2021/12/10 11:12:02;;;;;;;7.28;4.53;;;-0.70;99.90;;;;;;5094011;28;20024;-61
2021/12/10 11:14:29;;;;;;;7.05;4.65;;;-0.90;99.90;;;;;;5093903;28;20031;-62
2021/12/10 11:17:06;;;;;;;8.50;4.78;;;-1.10;99.90;;;;;;5093816;28;20468;-61
2021/12/10 11:19:32;;;;;;;7.47;5.15;;;-1.20;99.90;;;;;;5098117;28;20484;-61
2021/12/10 11:22:08;;;;;;;6.35;4.10;;;-1.20;99.90;;;;;;5102834;28;20027;-62
2021/12/10 11:24:42;;;;;;;10.23;5.20;;;-1.30;99.90;;;;;;5103792;28;20020;-62
2021/12/10 11:27:13;;;;;;;10.60;5.45;;;-1.30;99.90;;;;;;5094601;28;20481;-62
2021/12/10 11:29:43;;;;;;;14.73;5.55;;;-1.30;99.90;;;;;;5101541;28;20426;-61
2021/12/10 11:32:16;;;;;;;;;;;-1.40;99.90;;;;;;5101723;28;20054;-61
2021/12/10 11:35:11;;;;;;;9.57;5.38;;;-1.40;99.90;;;;;;5106356;28;20002;-61
2021/12/10 11:37:57;;;;;;;10.38;5.35;;;-1.40;99.90;;;;;;5084071;28;20045;-61
2021/12/10 11:40:41;;;;;;;10.02;5.90;;;-1.40;99.90;;;;;;5093530;28;20020;-61
2021/12/10 11:43:20;;;;;;;12.70;6.10;;;-1.50;99.90;;;;;;5093641;28;20028;-61
2021/12/10 11:46:05;;;;;;;11.70;6.28;;;-1.50;99.90;;;;;;5093733;28;20028;-61
2021/12/10 11:48:35;;;;;;;11.40;5.95;;;-1.60;99.90;;;;;;5093654;28;20531;-61
2021/12/10 11:51:12;;;;;;;10.63;6.20;;;-1.60;99.90;;;;;;5093037;28;20601;-61
2021/12/10 11:53:52;;;;;;;9.85;5.90;;;-1.60;99.90;;;;;;5093225;28;20036;-61
2021/12/10 11:56:31;;;;;;;10.30;5.85;;;-1.60;99.90;;;;;;5093261;28;20085;-61
2021/12/10 11:59:05;;;;;;;7.82;4.95;;;-1.70;99.90;;;;;;5093109;28;20540;-61
2021/12/10 12:01:33;;;;;;;9.45;5.57;;;-1.70;99.90;;;;;;5093053;28;20044;-61
2021/12/10 12:04:19;;;;;;;9.75;5.78;;;-1.70;99.90;;;;;;5092998;28;20434;-62
2021/12/10 12:06:49;;;;;;;14.63;5.47;;;-1.60;99.90;;;;;;5108120;28;20490;-62
2021/12/10 12:09:39;;;;;;;8.95;5.40;;;-1.60;99.90;;;;;;5113567;28;20027;-62
2021/12/10 12:12:17;;;;;;;9.60;5.70;;;-1.60;99.90;;;;;;5113599;28;20118;-60
2021/12/10 12:14:50;;;;;;;13.15;5.68;;;-1.60;99.90;;;;;;5113201;28;20027;-62
2021/12/10 12:17:35;;;;;;;6.57;4.00;;;-1.60;99.90;;;;;;5106644;28;20028;-61
2021/12/10 12:20:01;;;;;;;7.15;4.68;;;0.70;99.90;;;;;;5100068;28;20024;-61
2021/12/10 12:25:28;;;;;;;11.93;5.25;;;0.50;99.90;;;;;;5104399;28;20030;-61
2021/12/10 12:28:10;;;;;;;8.65;5.07;;;-0.10;99.90;;;;;;5095257;28;20520;-62
2021/12/10 12:30:53;;;;;;;9.63;4.90;;;-0.30;99.90;;;;;;5092570;28;20046;-61
2021/12/10 12:33:20;;;;;;;7.88;5.60;;;-0.50;99.90;;;;;;5092349;28;20097;-61
2021/12/10 12:35:46;;;;;;;8.48;4.68;;;-0.60;99.90;;;;;;5092826;28;20024;-61
2021/12/10 12:38:20;;;;;;;7.72;4.53;;;-0.70;99.90;;;;;;5092481;28;20385;-61
2021/12/10 12:41:02;;;;;;;7.05;4.68;;;-0.90;99.90;;;;;;5092173;28;20028;-60
2021/12/10 12:43:28;;;;;;;8.80;5.20;;;-1.00;99.90;;;;;;5092567;28;20031;-60
2021/12/10 12:46:06;;;;;;;5.05;4.15;;;-1.10;99.90;;;;;;5092403;28;20033;-60
2021/12/10 12:48:32;;;;;;;7.28;3.97;;;-1.10;99.90;;;;;;5092317;28;20051;-60
2021/12/10 12:51:02;;;;;;;5.22;3.67;;;-1.10;99.90;;;;;;5096736;27;20079;-60
2021/12/10 12:53:33;;;;;;;7.68;4.15;;;-0.40;99.90;;;;;;5108913;28;20084;-61
2021/12/10 12:56:03;;;;;;;8.30;4.28;;;-0.20;99.90;;;;;;5112282;28;20625;-62
2021/12/10 12:58:36;;;;;;;9.63;4.10;;;-0.50;99.90;;;;;;5112621;28;20024;-63
2021/12/10 13:01:37;;;;;;;12.77;4.32;;;-0.70;99.90;;;;;;5112101;28;20075;-62
2021/12/10 13:04:08;;;;;;;9.68;3.72;;;-0.80;99.90;;;;;;5112124;28;20098;-62
2021/12/10 13:06:54;;;;;;;7.13;4.05;;;-0.70;99.90;;;;;;5112228;28;20031;-62
2021/12/10 13:09:39;;;;;;;6.53;3.95;;;-0.70;99.90;;;;;;5113062;28;20028;-62
2021/12/10 13:12:11;;;;;;;7.75;4.32;;;-0.80;99.90;;;;;;5112199;28;20023;-62
2021/12/10 13:14:50;;;;;;;6.50;4.32;;;-0.80;99.90;;;;;;5112078;28;20059;-62
2021/12/10 13:17:26;;;;;;;9.48;4.88;;;-0.90;99.90;;;;;;5111811;28;20040;-62
2021/12/10 13:19:54;;;;;;;7.90;4.63;;;-0.90;99.90;;;;;;5112086;28;20042;-62
2021/12/10 13:22:24;;;;;;;7.47;4.57;;;-0.90;99.90;;;;;;5112019;28;20020;-62
2021/12/10 13:24:54;;;;;;;6.88;4.38;;;-0.90;99.90;;;;;;5112194;28;20016;-62
2021/12/10 13:27:24;;;;;;;5.88;4.25;;;-0.90;99.90;;;;;;5112311;28;20046;-62
2021/12/10 13:29:50;;;;;;;12.45;4.95;;;-1.00;99.90;;;;;;5102312;28;20055;-62
2021/12/10 13:32:15;;;;;;;9.15;5.35;;;-1.00;99.90;;;;;;5092811;28;20031;-62
2021/12/10 13:34:41;;;;;;;12.95;4.57;;;-1.00;99.90;;;;;;5095886;28;20040;-62
2021/12/10 13:37:11;;;;;;;8.65;4.65;;;-1.10;99.90;;;;;;5095851;28;20491;-62